Time;durP1;ratioP1;P1;durP2;ratioP2;P2;SDS_P1;SDS_P2;PMS_P1;PMS_P2;Temp;Humidity;BMP_temperature;BMP_pressure;BME280_temperature;BME280_humidity;BME280_pressure;Samples;Min_cycle;Max_cycle;Signal;HPM_P1;HPM_P2
2022/09/05 00:02:01;;;;;;;8.60;2.25;;;;;;;;;;4955401;29;20501;-71
2022/09/05 00:04:36;;;;;;;4.75;2.28;;;;;;;;;;4952202;28;20447;-71
2022/09/05 00:07:22;;;;;;;8.20;2.30;;;;;;;;;;4951930;28;20031;-71
2022/09/05 00:09:53;;;;;;;4.95;2.40;;;;;;;;;;4954232;29;20058;-72
2022/09/05 00:12:20;;;;;;;7.32;2.30;;;;;;;;;;4953042;29;20019;-71
2022/09/05 00:14:55;;;;;;;9.95;2.38;;;;;;;;;;4952237;28;20054;-72
2022/09/05 00:17:24;;;;;;;6.38;2.70;;;;;;;;;;4951920;29;20449;-71
2022/09/05 00:20:02;;;;;;;6.55;2.60;;;;;;;;;;4934653;29;20081;-71
2022/09/05 00:22:45;;;;;;;7.80;2.60;;;;;;;;;;4951760;29;20027;-71
2022/09/05 00:25:10;;;;;;;5.18;2.50;;;;;;;;;;4934543;29;20027;-72
2022/09/05 00:27:52;;;;;;;10.25;2.42;;;;;;;;;;4951539;29;20086;-72
2022/09/05 00:30:19;;;;;;;5.68;2.58;;;;;;;;;;4952127;28;20117;-71
2022/09/05 00:32:45;;;;;;;7.93;2.50;;;;;;;;;;4951681;29;20038;-72
2022/09/05 00:35:23;;;;;;;4.88;2.50;;;;;;;;;;4951299;28;20027;-71
2022/09/05 00:37:50;;;;;;;6.15;2.70;;;;;;;;;;4951465;29;20031;-70
2022/09/05 00:40:31;;;;;;;8.35;2.63;;;;;;;;;;4951484;29;20384;-71
2022/09/05 00:43:06;;;;;;;7.45;2.33;;;;;;;;;;4951285;29;20453;-71
2022/09/05 00:45:36;;;;;;;6.15;2.45;;;;;;;;;;4951088;29;20034;-70
2022/09/05 00:48:12;;;;;;;5.90;2.58;;;;;;;;;;4934065;29;20031;-71
2022/09/05 00:50:44;;;;;;;6.75;2.60;;;;;;;;;;4951352;29;20377;-71
2022/09/05 00:53:10;;;;;;;6.03;2.47;;;;;;;;;;4951141;28;20535;-70
2022/09/05 00:55:46;;;;;;;4.25;2.58;;;;;;;;;;4950905;29;20031;-70
2022/09/05 00:58:47;;;;;;;4.05;2.47;;;;;;;;;;4951232;29;20074;-71
2022/09/05 01:01:24;;;;;;;10.35;2.40;;;;;;;;;;5009941;28;20030;-70
2022/09/05 01:04:03;;;;;;;11.32;2.60;;;;;;;;;;4958708;28;20039;-70
2022/09/05 01:06:32;;;;;;;8.25;2.83;;;;;;;;;;4953869;29;20035;-70
2022/09/05 01:09:05;;;;;;;8.20;2.80;;;;;;;;;;4951218;29;20024;-70
2022/09/05 01:11:34;;;;;;;9.70;2.47;;;;;;;;;;4950985;29;20027;-70
2022/09/05 01:14:16;;;;;;;8.35;2.58;;;;;;;;;;4950857;28;20028;-73
2022/09/05 01:17:05;;;;;;;6.88;2.78;;;;;;;;;;4950860;28;20027;-71
2022/09/05 01:19:50;;;;;;;4.53;2.50;;;;;;;;;;4951308;29;20027;-71
2022/09/05 01:22:20;;;;;;;6.32;2.58;;;;;;;;;;4951318;28;20058;-71
2022/09/05 01:24:56;;;;;;;8.98;2.97;;;;;;;;;;4950982;28;20030;-71
2022/09/05 01:27:27;;;;;;;9.57;2.63;;;;;;;;;;4950690;28;20035;-72
2022/09/05 01:29:59;;;;;;;10.27;2.67;;;;;;;;;;4950801;29;20032;-71
2022/09/05 01:32:31;;;;;;;11.43;3.13;;;;;;;;;;4950758;29;20031;-71
2022/09/05 01:34:57;;;;;;;5.40;2.40;;;;;;;;;;4950604;28;20299;-70
2022/09/05 01:37:45;;;;;;;5.10;2.45;;;;;;;;;;4949471;28;20066;-72
2022/09/05 01:40:20;;;;;;;5.45;2.55;;;;;;;;;;4950770;28;20027;-72
2022/09/05 01:42:54;;;;;;;11.43;3.38;;;;;;;;;;4950632;29;20034;-71
2022/09/05 01:45:30;;;;;;;7.75;3.00;;;;;;;;;;4950482;28;20494;-69
2022/09/05 01:47:56;;;;;;;10.07;2.97;;;;;;;;;;4950763;28;20070;-70
2022/09/05 01:50:25;;;;;;;6.15;2.85;;;;;;;;;;4951953;29;20028;-70
2022/09/05 01:52:51;;;;;;;8.70;2.85;;;;;;;;;;4950600;29;20034;-70
2022/09/05 01:55:25;;;;;;;5.32;3.00;;;;;;;;;;4951374;28;20039;-70
2022/09/05 01:57:51;;;;;;;12.00;3.03;;;;;;;;;;4950590;29;20405;-70
2022/09/05 02:00:26;;;;;;;8.13;2.70;;;;;;;;;;4950544;29;20034;-71
2022/09/05 02:02:52;;;;;;;5.05;2.90;;;;;;;;;;4953281;29;20023;-73
2022/09/05 02:05:28;;;;;;;7.53;3.03;;;;;;;;;;4953589;28;20499;-72
2022/09/05 02:08:03;;;;;;;5.55;3.08;;;;;;;;;;4951096;29;20030;-69
2022/09/05 02:10:36;;;;;;;7.35;3.38;;;;;;;;;;4953680;29;20106;-71
2022/09/05 02:13:21;;;;;;;6.60;2.95;;;;;;;;;;4953481;29;20108;-72
2022/09/05 02:15:47;;;;;;;;;;;;;;;;;;4937332;29;20054;-71
2022/09/05 02:18:22;;;;;;;13.02;3.35;;;;;;;;;;4953628;28;19949;-71
2022/09/05 02:20:54;;;;;;;9.05;3.25;;;;;;;;;;4953529;29;20023;-72
2022/09/05 02:23:27;;;;;;;8.45;3.17;;;;;;;;;;4953746;28;20103;-71
2022/09/05 02:26:06;;;;;;;8.60;3.00;;;;;;;;;;4953336;29;20059;-71
2022/09/05 02:28:35;;;;;;;11.40;3.20;;;;;;;;;;4954069;29;20019;-71
2022/09/05 02:31:06;;;;;;;8.48;3.50;;;;;;;;;;4955112;29;20031;-71
2022/09/05 02:33:35;;;;;;;8.88;3.30;;;;;;;;;;4957477;28;20036;-71
2022/09/05 02:36:15;;;;;;;10.45;3.63;;;;;;;;;;4955584;29;20030;-71
2022/09/05 02:38:45;;;;;;;11.23;3.35;;;;;;;;;;4963571;29;20106;-71
2022/09/05 02:41:22;;;;;;;6.72;3.05;;;;;;;;;;4943170;29;20100;-71
2022/09/05 02:43:48;;;;;;;8.02;3.22;;;;;;;;;;4958777;28;20034;-72
2022/09/05 02:46:14;;;;;;;5.88;3.22;;;;;;;;;;4956261;29;20027;-71
2022/09/05 02:48:39;;;;;;;6.30;3.05;;;;;;;;;;4955382;29;20040;-73
2022/09/05 02:51:24;;;;;;;7.25;3.35;;;;;;;;;;4956301;29;20023;-71
2022/09/05 02:54:01;;;;;;;7.80;3.70;;;;;;;;;;4956851;28;20066;-71
2022/09/05 02:56:46;;;;;;;7.03;3.47;;;;;;;;;;4956421;29;20027;-72
2022/09/05 02:59:30;;;;;;;8.07;2.90;;;;;;;;;;4955157;29;20031;-73
2022/09/05 03:02:15;;;;;;;6.80;3.58;;;;;;;;;;4954653;29;20035;-71
2022/09/05 03:04:47;;;;;;;9.05;3.47;;;;;;;;;;4954188;28;20039;-72
2022/09/05 03:07:25;;;;;;;9.02;3.50;;;;;;;;;;4954125;29;20484;-72
2022/09/05 03:10:10;;;;;;;13.95;4.63;;;;;;;;;;4954334;29;20033;-71
2022/09/05 03:12:36;;;;;;;7.22;3.50;;;;;;;;;;4953133;28;20038;-71
2022/09/05 03:15:31;;;;;;;7.07;3.55;;;;;;;;;;4953388;28;20035;-71
2022/09/05 03:18:10;;;;;;;11.55;4.10;;;;;;;;;;4955861;29;20083;-72
2022/09/05 03:20:55;;;;;;;13.35;3.85;;;;;;;;;;4937989;29;20114;-71
2022/09/05 03:23:27;;;;;;;5.20;3.30;;;;;;;;;;4954967;28;20384;-72
2022/09/05 03:26:01;;;;;;;6.82;3.70;;;;;;;;;;4954470;29;20043;-72
2022/09/05 03:28:30;;;;;;;7.53;3.70;;;;;;;;;;4951986;29;20031;-71
2022/09/05 03:31:11;;;;;;;8.82;3.55;;;;;;;;;;4954180;28;20542;-71
2022/09/05 03:33:53;;;;;;;7.75;3.58;;;;;;;;;;4954029;28;20468;-71
2022/09/05 03:36:50;;;;;;;7.80;3.88;;;;;;;;;;4953649;29;20361;-71
2022/09/05 03:39:18;;;;;;;7.57;4.43;;;;;;;;;;4953841;28;20102;-71
2022/09/05 03:41:44;;;;;;;12.10;4.15;;;;;;;;;;4936778;29;20373;-71
2022/09/05 03:44:22;;;;;;;9.80;3.75;;;;;;;;;;4956115;28;20058;-71
2022/09/05 03:47:07;;;;;;;8.73;4.47;;;;;;;;;;4958294;29;20031;-72
2022/09/05 03:49:51;;;;;;;12.55;4.00;;;;;;;;;;4953522;28;20511;-72
2022/09/05 03:52:52;;;;;;;9.95;4.60;;;;;;;;;;4953991;28;20023;-71
2022/09/05 03:55:36;;;;;;;11.80;5.03;;;;;;;;;;5013816;28;20104;-72
2022/09/05 03:58:34;;;;;;;12.25;4.70;;;;;;;;;;4963671;28;20039;-73
2022/09/05 04:01:02;;;;;;;7.90;4.75;;;;;;;;;;4972500;28;20032;-70
2022/09/05 04:03:32;;;;;;;12.52;4.80;;;;;;;;;;4939876;28;20033;-72
2022/09/05 04:06:06;;;;;;;14.38;5.13;;;;;;;;;;4938244;29;20026;-72
2022/09/05 04:08:47;;;;;;;12.25;5.28;;;;;;;;;;4953779;28;20027;-71
2022/09/05 04:11:32;;;;;;;9.70;4.55;;;;;;;;;;4953751;29;20153;-70
2022/09/05 04:13:57;;;;;;;;;;;;;;;;;;4954396;28;20034;-72
2022/09/05 04:16:32;;;;;;;11.35;4.30;;;;;;;;;;4952678;28;20287;-72
2022/09/05 04:19:08;;;;;;;10.20;4.22;;;;;;;;;;4952893;28;20023;-72
2022/09/05 04:21:43;;;;;;;11.57;6.57;;;;;;;;;;4953131;28;20531;-72
2022/09/05 04:24:12;;;;;;;8.40;4.30;;;;;;;;;;4952033;28;20027;-74
2022/09/05 04:26:50;;;;;;;10.90;4.80;;;;;;;;;;4952178;28;20400;-71
2022/09/05 04:29:27;;;;;;;12.65;6.10;;;;;;;;;;4935543;29;20035;-73
2022/09/05 04:31:57;;;;;;;10.18;4.13;;;;;;;;;;4952566;28;20031;-72
2022/09/05 04:34:45;;;;;;;11.57;6.35;;;;;;;;;;4953031;28;20031;-72
2022/09/05 04:37:29;;;;;;;11.70;4.97;;;;;;;;;;4952682;29;20034;-73
2022/09/05 04:39:55;;;;;;;14.45;5.07;;;;;;;;;;4952918;28;20019;-72
2022/09/05 04:42:25;;;;;;;16.08;5.90;;;;;;;;;;4952411;29;20034;-72
2022/09/05 04:44:59;;;;;;;15.27;6.78;;;;;;;;;;4952429;28;20038;-73
2022/09/05 04:47:35;;;;;;;12.07;5.80;;;;;;;;;;4935635;29;20074;-73
2022/09/05 04:50:07;;;;;;;8.57;5.18;;;;;;;;;;4935847;29;20392;-73
2022/09/05 04:53:02;;;;;;;8.45;4.90;;;;;;;;;;4953061;28;20443;-72
2022/09/05 04:55:28;;;;;;;;;;;;;;;;;;4952881;28;20109;-72
2022/09/05 04:57:59;;;;;;;17.45;5.03;;;;;;;;;;4952322;28;20363;-74
2022/09/05 05:00:34;;;;;;;10.15;5.00;;;;;;;;;;4952063;28;20560;-72
2022/09/05 05:03:01;;;;;;;8.52;4.13;;;;;;;;;;4951989;28;20102;-72
2022/09/05 05:05:46;;;;;;;10.98;5.68;;;;;;;;;;4951821;28;20050;-72
2022/09/05 05:08:15;;;;;;;11.32;5.43;;;;;;;;;;4952375;28;20032;-72
2022/09/05 05:10:43;;;;;;;7.63;4.55;;;;;;;;;;4952042;28;20059;-71
2022/09/05 05:13:14;;;;;;;7.93;3.90;;;;;;;;;;4916576;28;1047196;-72
2022/09/05 05:16:06;;;;;;;10.57;4.82;;;;;;;;;;4952879;28;20037;-71
2022/09/05 05:18:40;;;;;;;10.90;4.70;;;;;;;;;;4956119;28;20035;-73
2022/09/05 05:21:08;;;;;;;9.25;4.90;;;;;;;;;;4955965;28;20035;-74
2022/09/05 05:23:51;;;;;;;16.40;7.03;;;;;;;;;;4953446;28;20095;-72
2022/09/05 05:26:23;;;;;;;10.35;5.50;;;;;;;;;;4952287;28;20034;-72
2022/09/05 05:29:01;;;;;;;10.93;4.32;;;;;;;;;;4953341;29;20124;-71
2022/09/05 05:31:31;;;;;;;12.90;5.53;;;;;;;;;;4953711;28;20027;-72
2022/09/05 05:33:59;;;;;;;9.30;5.35;;;;;;;;;;4955377;28;20035;-71
2022/09/05 05:36:27;;;;;;;11.45;4.38;;;;;;;;;;4953152;28;20020;-73
2022/09/05 05:38:57;;;;;;;13.80;5.97;;;;;;;;;;4956801;29;20059;-71
2022/09/05 05:41:29;;;;;;;8.30;5.10;;;;;;;;;;4957622;29;20456;-70
2022/09/05 05:43:56;;;;;;;14.77;6.70;;;;;;;;;;4959108;28;20027;-70
2022/09/05 05:46:34;;;;;;;13.77;5.20;;;;;;;;;;4958638;28;20496;-72
2022/09/05 05:49:12;;;;;;;12.23;5.18;;;;;;;;;;4957569;28;20038;-71
2022/09/05 05:51:43;;;;;;;6.80;4.10;;;;;;;;;;4955742;28;20015;-71
2022/09/05 05:54:28;;;;;;;11.13;4.35;;;;;;;;;;4955759;28;20042;-72
2022/09/05 05:57:12;;;;;;;9.50;4.00;;;;;;;;;;4955937;29;20030;-72
2022/09/05 05:59:44;;;;;;;10.43;4.05;;;;;;;;;;4957735;29;20391;-71
2022/09/05 06:02:31;;;;;;;10.23;4.53;;;;;;;;;;4969962;28;20055;-71
2022/09/05 06:05:15;;;;;;;14.70;5.82;;;;;;;;;;4955688;28;20036;-71
2022/09/05 06:07:51;;;;;;;7.38;4.18;;;;;;;;;;4958175;28;20042;-73
2022/09/05 06:10:36;;;;;;;8.77;4.15;;;;;;;;;;4960060;29;20431;-71
2022/09/05 06:13:20;;;;;;;10.88;4.25;;;;;;;;;;4962662;28;20210;-71
2022/09/05 06:16:03;;;;;;;9.10;4.00;;;;;;;;;;4950391;23;20534;-74
2022/09/05 06:18:31;;;;;;;15.48;4.32;;;;;;;;;;4935659;29;20039;-74
2022/09/05 06:21:09;;;;;;;8.38;3.92;;;;;;;;;;4935593;29;20078;-74
2022/09/05 06:23:47;;;;;;;12.18;4.30;;;;;;;;;;4936252;29;20559;-75
2022/09/05 06:26:24;;;;;;;12.52;5.15;;;;;;;;;;4935989;29;20089;-75
2022/09/05 06:29:00;;;;;;;12.25;4.43;;;;;;;;;;4935632;28;20056;-76
2022/09/05 06:31:36;;;;;;;10.23;4.18;;;;;;;;;;4935640;28;20514;-74
2022/09/05 06:34:14;;;;;;;10.52;4.18;;;;;;;;;;4935623;28;20035;-76
2022/09/05 06:36:51;;;;;;;15.38;4.38;;;;;;;;;;4935861;28;20024;-74
2022/09/05 06:39:25;;;;;;;10.27;4.30;;;;;;;;;;4936009;28;20196;-75
2022/09/05 06:41:57;;;;;;;10.48;4.60;;;;;;;;;;4935292;28;20056;-75
2022/09/05 06:44:30;;;;;;;8.43;4.10;;;;;;;;;;4935533;28;20115;-74
2022/09/05 06:46:57;;;;;;;11.05;4.13;;;;;;;;;;4938638;28;20032;-76
2022/09/05 06:49:26;;;;;;;18.25;4.18;;;;;;;;;;4939290;28;20032;-75
2022/09/05 06:51:51;;;;;;;9.02;4.57;;;;;;;;;;4939283;28;20090;-75
2022/09/05 06:54:44;;;;;;;15.05;4.60;;;;;;;;;;4922320;28;20036;-74
2022/09/05 06:57:29;;;;;;;11.13;5.05;;;;;;;;;;4937493;28;20035;-75
2022/09/05 07:00:14;;;;;;;14.80;5.65;;;;;;;;;;4937677;28;20024;-75
2022/09/05 07:02:43;;;;;;;15.65;4.63;;;;;;;;;;4938828;28;20051;-75
2022/09/05 07:05:22;;;;;;;8.32;4.32;;;;;;;;;;4940325;28;20036;-74
2022/09/05 07:07:54;;;;;;;11.63;4.85;;;;;;;;;;4938869;28;20031;-75
2022/09/05 07:10:24;;;;;;;11.43;4.97;;;;;;;;;;4935414;28;20051;-75
2022/09/05 07:12:54;;;;;;;10.55;5.25;;;;;;;;;;4935593;28;20042;-74
2022/09/05 07:15:20;;;;;;;18.58;6.75;;;;;;;;;;4934767;28;20031;-74
2022/09/05 07:17:49;;;;;;;10.45;4.88;;;;;;;;;;4919450;28;20422;-77
2022/09/05 07:20:19;;;;;;;11.20;5.72;;;;;;;;;;4939887;28;20031;-74
2022/09/05 07:22:57;;;;;;;11.98;4.03;;;;;;;;;;4940176;28;20086;-74
2022/09/05 07:25:27;;;;;;;8.57;4.82;;;;;;;;;;4937531;28;20420;-73
2022/09/05 07:28:19;;;;;;;11.95;4.30;;;;;;;;;;4936130;28;20032;-74
2022/09/05 07:30:47;;;;;;;9.48;4.80;;;;;;;;;;4938801;28;20404;-75
2022/09/05 07:33:17;;;;;;;6.97;4.00;;;;;;;;;;4940618;28;20097;-78
2022/09/05 07:35:44;;;;;;;10.30;4.45;;;;;;;;;;4930592;28;20040;-75
2022/09/05 07:38:14;;;;;;;9.18;4.47;;;;;;;;;;4949144;28;20073;-75
2022/09/05 07:40:42;;;;;;;13.88;4.38;;;;;;;;;;4955351;28;20039;-74
2022/09/05 07:43:11;;;;;;;11.32;4.30;;;;;;;;;;4954839;28;20074;-73
2022/09/05 07:45:42;;;;;;;7.13;4.03;;;;;;;;;;4939498;28;20020;-75
2022/09/05 07:48:11;;;;;;;12.57;3.97;;;;;;;;;;4939890;28;20035;-75
2022/09/05 07:50:56;;;;;;;13.30;4.53;;;;;;;;;;4936172;28;20477;-74
2022/09/05 07:53:22;;;;;;;12.85;5.05;;;;;;;;;;4925603;28;20034;-75
2022/09/05 07:55:52;;;;;;;12.85;4.20;;;;;;;;;;4954301;28;20036;-76
2022/09/05 07:58:20;;;;;;;9.30;4.28;;;;;;;;;;4945810;28;20028;-76
2022/09/05 08:00:50;;;;;;;16.05;4.00;;;;;;;;;;4936253;28;20058;-75
2022/09/05 08:03:17;;;;;;;11.23;3.97;;;;;;;;;;4937807;28;20028;-75
2022/09/05 08:05:49;;;;;;;13.70;3.78;;;;;;;;;;4937530;28;20527;-76
2022/09/05 08:08:27;;;;;;;8.77;4.43;;;;;;;;;;4936412;28;20111;-74
2022/09/05 08:11:00;;;;;;;17.70;4.20;;;;;;;;;;4942955;28;20502;-76
2022/09/05 08:13:42;;;;;;;14.00;4.70;;;;;;;;;;4943546;28;20047;-75
2022/09/05 08:16:13;;;;;;;9.18;3.78;;;;;;;;;;4936773;28;20165;-73
2022/09/05 08:18:39;;;;;;;6.07;3.85;;;;;;;;;;4921269;28;20093;-74
2022/09/05 08:21:06;;;;;;;8.07;3.80;;;;;;;;;;4920381;28;20031;-73
2022/09/05 08:23:51;;;;;;;11.00;4.05;;;;;;;;;;4917413;28;20130;-74
2022/09/05 08:26:17;;;;;;;14.70;4.20;;;;;;;;;;4936693;28;20481;-73
2022/09/05 08:28:43;;;;;;;15.30;3.80;;;;;;;;;;4936313;28;20036;-74
2022/09/05 08:31:13;;;;;;;7.28;3.53;;;;;;;;;;4916873;28;20097;-76
2022/09/05 08:33:39;;;;;;;9.70;4.10;;;;;;;;;;4916506;28;20082;-74
2022/09/05 08:36:08;;;;;;;8.60;4.20;;;;;;;;;;4933999;28;20027;-73
2022/09/05 08:38:37;;;;;;;14.35;3.90;;;;;;;;;;4934512;28;20027;-73
2022/09/05 08:41:21;;;;;;;13.23;4.43;;;;;;;;;;4933871;28;20059;-75
2022/09/05 08:44:05;;;;;;;14.80;4.47;;;;;;;;;;4933718;28;20383;-75
2022/09/05 08:46:50;;;;;;;13.07;4.20;;;;;;;;;;4933515;28;20547;-75
2022/09/05 08:49:26;;;;;;;8.18;4.10;;;;;;;;;;4916735;28;20162;-73
2022/09/05 08:51:54;;;;;;;8.75;4.13;;;;;;;;;;4941066;28;20026;-74
2022/09/05 08:54:36;;;;;;;9.90;4.25;;;;;;;;;;4922012;28;20038;-73
2022/09/05 08:57:02;;;;;;;8.32;3.38;;;;;;;;;;4946602;28;20024;-75
2022/09/05 08:59:45;;;;;;;14.20;4.30;;;;;;;;;;4941722;28;20034;-72
2022/09/05 09:02:32;;;;;;;6.53;3.60;;;;;;;;;;4939584;28;20060;-74
2022/09/05 09:05:09;;;;;;;17.08;3.85;;;;;;;;;;4942503;28;20123;-75
2022/09/05 09:07:35;;;;;;;7.35;3.70;;;;;;;;;;4941680;28;20024;-74
2022/09/05 09:10:16;;;;;;;11.88;3.38;;;;;;;;;;4944276;28;20057;-73
2022/09/05 09:12:59;;;;;;;10.43;3.63;;;;;;;;;;4925522;28;20027;-74
2022/09/05 09:15:25;;;;;;;10.75;4.05;;;;;;;;;;4928520;28;20035;-74
2022/09/05 09:17:52;;;;;;;10.93;4.50;;;;;;;;;;4944597;28;20030;-73
2022/09/05 09:20:38;;;;;;;8.30;3.75;;;;;;;;;;4928303;28;20028;-75
2022/09/05 09:23:08;;;;;;;10.02;3.45;;;;;;;;;;4947260;28;20038;-76
2022/09/05 09:26:10;;;;;;;5.30;3.47;;;;;;;;;;4937094;28;20127;-74
2022/09/05 09:28:39;;;;;;;9.02;3.58;;;;;;;;;;4974283;28;20027;-75
2022/09/05 09:31:23;;;;;;;9.55;3.40;;;;;;;;;;4942323;28;20040;-76
2022/09/05 09:33:56;;;;;;;13.68;4.30;;;;;;;;;;4916641;28;20126;-75
2022/09/05 09:36:25;;;;;;;17.15;3.63;;;;;;;;;;4933746;28;20059;-74
2022/09/05 09:39:01;;;;;;;9.50;3.35;;;;;;;;;;4935546;28;20032;-74
2022/09/05 09:41:37;;;;;;;7.13;3.35;;;;;;;;;;4934852;28;20089;-75
2022/09/05 09:44:02;;;;;;;18.02;4.32;;;;;;;;;;4935022;28;20027;-76
2022/09/05 09:46:36;;;;;;;9.35;3.40;;;;;;;;;;4918267;28;20432;-74
2022/09/05 09:49:17;;;;;;;7.72;3.90;;;;;;;;;;4934166;28;20446;-78
2022/09/05 09:51:46;;;;;;;19.95;3.60;;;;;;;;;;4934765;28;20036;-78
2022/09/05 09:54:31;;;;;;;9.82;3.05;;;;;;;;;;4934737;28;20028;-75
2022/09/05 09:56:57;;;;;;;;;;;;;;;;;;4935021;28;20030;-75
2022/09/05 09:59:26;;;;;;;8.63;3.70;;;;;;;;;;4937600;28;19946;-76
2022/09/05 10:01:56;;;;;;;10.30;3.80;;;;;;;;;;4937947;28;20078;-77
2022/09/05 10:04:34;;;;;;;13.13;3.50;;;;;;;;;;4956698;28;20079;-77
2022/09/05 10:07:06;;;;;;;8.80;3.45;;;;;;;;;;4956288;28;20012;-77
2022/09/05 10:09:32;;;;;;;17.38;3.88;;;;;;;;;;4939326;28;20035;-77
2022/09/05 10:12:10;;;;;;;8.63;3.85;;;;;;;;;;4956336;28;20028;-75
2022/09/05 10:14:36;;;;;;;13.18;3.83;;;;;;;;;;4955411;28;20067;-76
2022/09/05 10:17:19;;;;;;;9.40;3.55;;;;;;;;;;4931635;28;20032;-74
2022/09/05 10:19:58;;;;;;;8.15;3.83;;;;;;;;;;4942178;28;20028;-75
2022/09/05 10:22:49;;;;;;;11.63;3.72;;;;;;;;;;4934995;28;20142;-75
2022/09/05 10:25:15;;;;;;;12.30;5.00;;;;;;;;;;4937489;28;20495;-76
2022/09/05 10:27:56;;;;;;;6.35;3.45;;;;;;;;;;4919747;28;20032;-77
2022/09/05 10:30:34;;;;;;;11.75;3.80;;;;;;;;;;4919107;28;20028;-74
2022/09/05 10:33:19;;;;;;;5.72;3.55;;;;;;;;;;4938199;28;20481;-77
2022/09/05 10:35:45;;;;;;;;;;;;;;;;;;4938534;28;20038;-75
2022/09/05 10:38:18;;;;;;;8.93;3.85;;;;;;;;;;4935755;28;19907;-75
2022/09/05 10:40:46;;;;;;;7.38;4.10;;;;;;;;;;4918936;28;20024;-76
2022/09/05 10:43:21;;;;;;;6.53;3.40;;;;;;;;;;4936341;28;20426;-76
2022/09/05 10:45:47;;;;;;;8.13;3.95;;;;;;;;;;4942683;28;20023;-77
2022/09/05 10:48:25;;;;;;;7.05;3.40;;;;;;;;;;4929411;28;20488;-76
2022/09/05 10:51:08;;;;;;;11.80;3.85;;;;;;;;;;4938403;28;20086;-75
2022/09/05 10:53:37;;;;;;;6.05;2.97;;;;;;;;;;4938688;28;20024;-75
2022/09/05 10:56:08;;;;;;;10.10;3.85;;;;;;;;;;4935392;28;20032;-77
2022/09/05 10:58:43;;;;;;;13.10;4.10;;;;;;;;;;4935364;28;20420;-74
2022/09/05 11:01:24;;;;;;;8.68;3.35;;;;;;;;;;4935168;28;20484;-74
2022/09/05 11:04:16;;;;;;;12.75;3.50;;;;;;;;;;4918210;28;20038;-74
2022/09/05 11:06:42;;;;;;;6.63;3.45;;;;;;;;;;4949276;28;20036;-74
2022/09/05 11:09:13;;;;;;;6.78;3.22;;;;;;;;;;4935614;28;20031;-76
2022/09/05 11:11:44;;;;;;;7.03;3.05;;;;;;;;;;4934845;28;20027;-75
2022/09/05 11:14:29;;;;;;;12.13;3.30;;;;;;;;;;4935006;28;20473;-75
2022/09/05 11:17:05;;;;;;;8.27;2.92;;;;;;;;;;4935070;28;20101;-75
2022/09/05 11:19:41;;;;;;;9.07;3.25;;;;;;;;;;4935082;28;20481;-77
2022/09/05 11:22:07;;;;;;;9.35;3.42;;;;;;;;;;4934602;28;20516;-74
2022/09/05 11:24:38;;;;;;;10.63;2.80;;;;;;;;;;4935149;28;20396;-74
2022/09/05 11:27:07;;;;;;;9.50;3.00;;;;;;;;;;4917915;28;20046;-76
2022/09/05 11:29:39;;;;;;;8.77;3.35;;;;;;;;;;4935465;28;20028;-75
2022/09/05 11:32:24;;;;;;;10.57;3.05;;;;;;;;;;4935598;28;20036;-76
2022/09/05 11:34:57;;;;;;;8.63;3.30;;;;;;;;;;4933746;28;20384;-75
2022/09/05 11:37:30;;;;;;;8.18;3.03;;;;;;;;;;4934937;28;20032;-75
2022/09/05 11:40:11;;;;;;;5.88;2.65;;;;;;;;;;4935725;28;20385;-77
2022/09/05 11:42:40;;;;;;;6.07;3.20;;;;;;;;;;4936063;28;20024;-74
2022/09/05 11:45:25;;;;;;;13.98;3.10;;;;;;;;;;4937668;28;20028;-77
2022/09/05 11:47:51;;;;;;;;;;;;;;;;;;4924417;28;20038;-76
2022/09/05 11:50:35;;;;;;;5.53;2.83;;;;;;;;;;4939908;28;19907;-74
2022/09/05 11:53:20;;;;;;;7.85;2.92;;;;;;;;;;4935939;28;20028;-76
2022/09/05 11:55:46;;;;;;;6.72;3.10;;;;;;;;;;4935817;28;20032;-76
2022/09/05 11:58:26;;;;;;;6.78;2.90;;;;;;;;;;4937874;28;20039;-77
2022/09/05 12:00:59;;;;;;;9.43;3.40;;;;;;;;;;4961803;28;20050;-74
2022/09/05 12:03:41;;;;;;;6.05;3.05;;;;;;;;;;5031284;28;20026;-75
2022/09/05 12:06:07;;;;;;;12.20;3.75;;;;;;;;;;5016238;28;20382;-75
2022/09/05 12:08:53;;;;;;;11.57;3.13;;;;;;;;;;5017017;28;20029;-76
2022/09/05 12:11:43;;;;;;;20.00;3.70;;;;;;;;;;5034420;28;20049;-74
2022/09/05 12:14:14;;;;;;;10.20;3.13;;;;;;;;;;5034448;28;20498;-78
2022/09/05 12:16:56;;;;;;;15.50;3.35;;;;;;;;;;5034316;28;20029;-78
2022/09/05 12:19:25;;;;;;;13.95;3.45;;;;;;;;;;5010190;22;20130;-76
2022/09/05 12:22:10;;;;;;;6.13;2.67;;;;;;;;;;4958161;29;20473;-73
2022/09/05 12:24:36;;;;;;;;;;;;;;;;;;4955209;28;20027;-74
2022/09/05 12:27:07;;;;;;;10.07;2.80;;;;;;;;;;4956153;28;19957;-73
2022/09/05 12:29:36;;;;;;;4.43;3.10;;;;;;;;;;4958848;28;20394;-76
2022/09/05 12:32:04;;;;;;;10.07;3.33;;;;;;;;;;4956025;28;20456;-76
2022/09/05 12:34:41;;;;;;;13.77;3.38;;;;;;;;;;4957307;29;20030;-74
2022/09/05 12:37:12;;;;;;;11.27;3.17;;;;;;;;;;4955279;29;20425;-74
2022/09/05 12:39:43;;;;;;;7.60;3.33;;;;;;;;;;4954853;28;20043;-77
2022/09/05 12:42:20;;;;;;;8.00;3.53;;;;;;;;;;4960579;29;20106;-73
2022/09/05 12:45:10;;;;;;;8.63;2.90;;;;;;;;;;4955897;28;20108;-74
2022/09/05 12:47:54;;;;;;;7.95;2.95;;;;;;;;;;4952577;28;20450;-74
2022/09/05 12:50:21;;;;;;;;;;;;;;;;;;4954114;28;20027;-74
2022/09/05 12:52:53;;;;;;;11.73;3.45;;;;;;;;;;4957271;29;19906;-73
2022/09/05 12:55:25;;;;;;;4.93;2.95;;;;;;;;;;4957597;29;20037;-74
2022/09/05 12:57:54;;;;;;;8.13;3.00;;;;;;;;;;4953502;28;20035;-74
2022/09/05 13:00:21;;;;;;;13.57;3.72;;;;;;;;;;4953831;29;20028;-74
2022/09/05 13:02:52;;;;;;;6.63;3.05;;;;;;;;;;4960524;29;20070;-76
2022/09/05 13:05:22;;;;;;;14.23;3.35;;;;;;;;;;4961374;28;20484;-76
2022/09/05 13:07:55;;;;;;;11.40;3.60;;;;;;;;;;4960030;29;20035;-75
2022/09/05 13:10:33;;;;;;;7.28;3.17;;;;;;;;;;4958916;28;20023;-75
2022/09/05 13:13:19;;;;;;;8.98;3.80;;;;;;;;;;4960092;29;20046;-75
2022/09/05 13:15:49;;;;;;;16.52;3.33;;;;;;;;;;4964203;28;20117;-75
2022/09/05 13:18:21;;;;;;;9.82;2.83;;;;;;;;;;4961235;28;20034;-76
2022/09/05 13:20:57;;;;;;;5.63;3.22;;;;;;;;;;4956617;29;20510;-76
2022/09/05 13:23:23;;;;;;;6.50;3.10;;;;;;;;;;4952764;28;20031;-77
2022/09/05 13:26:04;;;;;;;9.20;3.50;;;;;;;;;;4953852;28;20023;-77
2022/09/05 13:28:39;;;;;;;12.52;3.15;;;;;;;;;;4951366;28;20406;-77
2022/09/05 13:31:07;;;;;;;8.20;2.78;;;;;;;;;;4953422;29;20039;-75
2022/09/05 13:33:45;;;;;;;9.70;2.80;;;;;;;;;;4953336;29;20027;-75
2022/09/05 13:36:25;;;;;;;14.52;3.30;;;;;;;;;;4952373;29;20035;-77
2022/09/05 13:38:53;;;;;;;7.43;2.83;;;;;;;;;;4952327;28;20032;-76
2022/09/05 13:41:26;;;;;;;6.93;2.97;;;;;;;;;;4954243;28;20115;-78
2022/09/05 13:43:52;;;;;;;10.23;3.15;;;;;;;;;;4957444;29;20046;-75
2022/09/05 13:46:20;;;;;;;8.85;3.05;;;;;;;;;;4958037;29;20038;-74
2022/09/05 13:48:49;;;;;;;10.75;3.00;;;;;;;;;;4952030;28;20031;-75
2022/09/05 13:51:27;;;;;;;10.95;2.92;;;;;;;;;;4952846;29;20028;-75
2022/09/05 13:54:02;;;;;;;9.38;3.30;;;;;;;;;;4954419;29;20106;-75
2022/09/05 13:56:31;;;;;;;7.32;2.92;;;;;;;;;;4953178;28;20104;-75
2022/09/05 13:59:08;;;;;;;8.57;3.03;;;;;;;;;;4955892;28;20023;-74
2022/09/05 14:01:54;;;;;;;12.68;3.92;;;;;;;;;;4957063;28;20047;-75
2022/09/05 14:04:32;;;;;;;9.68;3.90;;;;;;;;;;4962745;28;20451;-74
2022/09/05 14:07:18;;;;;;;6.93;3.10;;;;;;;;;;4956919;29;20073;-76
2022/09/05 14:09:45;;;;;;;14.75;3.35;;;;;;;;;;4956446;28;20194;-75
2022/09/05 14:12:31;;;;;;;4.85;2.95;;;;;;;;;;4958175;28;20023;-74
2022/09/05 14:14:57;;;;;;;5.97;3.17;;;;;;;;;;4955554;28;20050;-75
2022/09/05 14:17:50;;;;;;;11.57;3.20;;;;;;;;;;4956076;28;20023;-75
2022/09/05 14:23:06;;;;;;;6.53;2.65;;;;;;;;;;4959834;28;20062;-74
2022/09/05 14:25:38;;;;;;;9.45;3.17;;;;;;;;;;4961069;28;20077;-75
2022/09/05 14:28:05;;;;;;;6.22;3.30;;;;;;;;;;4961850;28;20134;-75
2022/09/05 14:30:40;;;;;;;21.40;3.60;;;;;;;;;;4959352;29;20388;-75
2022/09/05 14:33:17;;;;;;;8.10;3.58;;;;;;;;;;4958263;28;20450;-74
2022/09/05 14:35:56;;;;;;;9.13;3.40;;;;;;;;;;4958111;29;20024;-75
2022/09/05 14:38:22;;;;;;;10.68;3.10;;;;;;;;;;4957931;28;20027;-76
2022/09/05 14:41:06;;;;;;;9.93;3.50;;;;;;;;;;4957597;28;20036;-74
2022/09/05 14:43:45;;;;;;;10.82;3.10;;;;;;;;;;4962970;28;20034;-74
2022/09/05 14:46:12;;;;;;;9.60;3.10;;;;;;;;;;4961282;29;20035;-76
2022/09/05 14:48:56;;;;;;;8.75;3.17;;;;;;;;;;4960759;28;20424;-74
2022/09/05 14:51:36;;;;;;;7.90;3.55;;;;;;;;;;4966025;28;20377;-75
2022/09/05 14:54:11;;;;;;;7.90;3.10;;;;;;;;;;4959111;29;20110;-75
2022/09/05 14:56:39;;;;;;;7.40;3.20;;;;;;;;;;4960208;28;20027;-72
2022/09/05 14:59:11;;;;;;;13.25;3.20;;;;;;;;;;4974444;28;20046;-76
2022/09/05 15:01:48;;;;;;;16.67;3.22;;;;;;;;;;4976075;28;20023;-75
2022/09/05 15:04:17;;;;;;;14.10;3.30;;;;;;;;;;4975967;28;20083;-73
2022/09/05 15:06:44;;;;;;;8.70;3.08;;;;;;;;;;4974722;29;20007;-75
2022/09/05 15:09:09;;;;;;;5.53;2.85;;;;;;;;;;4977140;28;20030;-75
2022/09/05 15:11:35;;;;;;;8.48;3.22;;;;;;;;;;4976835;28;20075;-76
2022/09/05 15:14:05;;;;;;;9.45;3.05;;;;;;;;;;4970649;28;20041;-76
2022/09/05 15:16:34;;;;;;;12.02;4.07;;;;;;;;;;4967244;29;20042;-74
2022/09/05 15:19:00;;;;;;;14.27;2.97;;;;;;;;;;4962876;28;20508;-78
2022/09/05 15:21:39;;;;;;;10.00;3.58;;;;;;;;;;4964701;28;20024;-75
2022/09/05 15:24:23;;;;;;;8.48;2.90;;;;;;;;;;4968651;28;20016;-75
2022/09/05 15:26:54;;;;;;;14.87;3.30;;;;;;;;;;4963763;29;20135;-76
2022/09/05 15:29:22;;;;;;;12.15;3.20;;;;;;;;;;4963194;28;20035;-75